LFBZ/BIQ METAR and TAF weather

Enter ICAO airport designator
Station Type Date Time Source
LFBZ METAR 2019/12/07 05:00 UTC NOAA

LFBZ 070500Z AUTO 16004KT CAVOK 08/07 Q1022 TEMPO BKN010


Station Type Date Time Source
LFBZ Decoded METAR 2019/12/07 05:00 UTC NOAA

Biarritz, France (LFBZ) 43-28N 001-32W 71M
Dec 07, 2019 - 12:00 AM EST / 2019.12.07 0500 UTC
Wind: from the SSE (160 degrees) at 5 MPH (4 KT):0
Visibility: greater than 7 mile(s):0
Temperature: 46 F (8 C)
Dew Point: 44 F (7 C)
Relative Humidity: 93%
Pressure (altimeter): 30.18 in. Hg (1022 hPa)
ob: LFBZ 070500Z AUTO 16004KT CAVOK 08/07 Q1022 TEMPO BKN010
cycle: 5

Station Type Date Time Source
LFBZ TAF 2019/12/06 18:53 UTC NOAA

TAF
AMD LFBZ 061843Z 0618/0718 VRB03KT CAVOK
TEMPO 0618/0620 4000 BR
BECMG 0620/0623 BKN045 PROB30
TEMPO 0703/0712 -RA BKN011

Example: see airport list